Time;durP1;ratioP1;P1;durP2;ratioP2;P2;SDS_P1;SDS_P2;PMS_P1;PMS_P2;Temp;Humidity;BMP_temperature;BMP_pressure;BME280_temperature;BME280_humidity;BME280_pressure;Samples;Min_cycle;Max_cycle;Signal;HPM_P1;HPM_P2
2022/11/04 00:02:18;;;;;;;4.75;2.53;;;9.50;99.90;;;;;;8310761;28;20080;-80
2022/11/04 00:06:19;;;;;;;3.40;2.42;;;9.50;99.90;;;;;;8319220;28;20171;-79
2022/11/04 00:12:23;;;;;;;2.42;1.90;;;9.40;99.90;;;;;;8310915;28;20025;-79
2022/11/04 00:14:40;;;;;;;3.13;1.90;;;9.40;99.90;;;;;;8312232;28;20061;-78
2022/11/04 00:18:41;;;;;;;2.17;1.60;;;9.40;99.90;;;;;;8310748;28;20033;-78
2022/11/04 00:35:39;;;;;;;2.70;1.85;;;9.40;99.90;;;;;;8315657;28;20032;-79
2022/11/04 00:39:39;;;;;;;3.17;2.03;;;9.40;99.90;;;;;;8308211;28;20018;-78
2022/11/04 00:43:40;;;;;;;2.03;1.65;;;9.40;99.90;;;;;;8312438;28;20017;-79
2022/11/04 00:47:40;;;;;;;3.03;1.60;;;9.40;99.90;;;;;;8311214;28;20393;-80
2022/11/04 00:51:41;;;;;;;3.35;1.80;;;9.40;99.90;;;;;;8313351;28;20493;-79
2022/11/04 00:55:42;;;;;;;3.53;1.60;;;9.50;99.90;;;;;;8310846;28;20030;-79
2022/11/04 00:59:44;;;;;;;4.40;1.70;;;9.40;99.90;;;;;;8306011;28;20029;-79
2022/11/04 01:03:50;;;;;;;3.10;1.85;;;9.40;99.90;;;;;;8310448;28;20482;-79
2022/11/04 01:07:51;;;;;;;2.85;1.40;;;9.40;99.90;;;;;;8300180;28;20478;-78
2022/11/04 01:11:51;;;;;;;2.22;1.58;;;9.40;99.90;;;;;;8305545;28;20018;-79
2022/11/04 01:15:52;;;;;;;2.60;1.70;;;9.40;99.90;;;;;;8315379;28;20014;-79
2022/11/04 01:19:52;;;;;;;2.08;1.63;;;9.40;99.90;;;;;;8315507;28;20025;-79
2022/11/04 01:23:53;;;;;;;2.92;1.60;;;9.40;99.90;;;;;;8319651;28;20050;-79
2022/11/04 01:27:54;;;;;;;3.88;1.40;;;9.30;99.90;;;;;;8321965;28;20419;-79
2022/11/04 01:31:55;;;;;;;1.92;1.27;;;9.40;99.90;;;;;;8324381;28;20053;-79
2022/11/04 01:35:58;;;;;;;1.55;1.15;;;9.40;99.90;;;;;;8313171;28;20508;-79
2022/11/04 01:39:59;;;;;;;2.35;1.08;;;9.40;99.90;;;;;;8312901;28;20021;-79
2022/11/04 01:44:02;;;;;;;1.80;1.02;;;9.40;99.90;;;;;;8314473;28;20013;-79
2022/11/04 01:48:11;;;;;;;2.97;1.00;;;9.30;99.90;;;;;;8313209;28;20034;-79
2022/11/04 01:52:22;;;;;;;1.13;0.88;;;9.30;99.90;;;;;;8316230;28;20017;-79
2022/11/04 01:56:25;;;;;;;1.23;0.90;;;9.30;99.90;;;;;;8316249;28;20129;-79
2022/11/04 02:00:26;;;;;;;1.52;0.90;;;9.40;99.90;;;;;;8316107;28;20076;-79
2022/11/04 02:04:26;;;;;;;1.20;0.70;;;9.30;99.90;;;;;;8323618;28;20022;-81
2022/11/04 02:08:28;;;;;;;0.93;0.70;;;9.20;99.90;;;;;;8315619;28;20105;-79
2022/11/04 02:16:48;;;;;;;0.60;0.60;;;9.10;99.90;;;;;;8318276;28;20060;-80
2022/11/04 02:20:55;;;;;;;1.33;0.70;;;9.10;99.90;;;;;;8314224;28;20026;-79
2022/11/04 02:25:03;;;;;;;1.15;0.60;;;9.00;99.90;;;;;;8314184;28;20014;-79
2022/11/04 02:29:39;;;;;;;1.00;0.65;;;8.90;99.90;;;;;;8314673;28;20599;-79
2022/11/04 02:33:55;;;;;;;1.00;0.70;;;9.00;99.90;;;;;;8310376;28;20036;-79
2022/11/04 02:38:11;;;;;;;1.10;0.70;;;8.90;99.90;;;;;;8308071;28;20080;-79
2022/11/04 02:42:34;;;;;;;1.10;0.60;;;8.90;99.90;;;;;;8321951;28;20113;-79
2022/11/04 02:46:43;;;;;;;0.90;0.52;;;8.90;99.90;;;;;;8314541;28;20033;-79
2022/11/04 02:51:08;;;;;;;0.90;0.52;;;8.80;99.90;;;;;;8315399;28;20083;-79
2022/11/04 02:55:15;;;;;;;0.70;0.50;;;8.90;99.90;;;;;;8312336;28;20068;-79
2022/11/04 02:59:46;;;;;;;1.48;0.43;;;8.90;99.90;;;;;;8317402;28;20666;-79
2022/11/04 03:03:56;;;;;;;0.95;0.60;;;8.90;99.90;;;;;;8308009;28;20026;-79
2022/11/04 03:08:03;;;;;;;0.85;0.60;;;8.80;99.90;;;;;;8309519;28;20033;-80
2022/11/04 03:12:08;;;;;;;0.75;0.50;;;8.70;99.90;;;;;;8310236;28;20034;-80
2022/11/04 03:16:18;;;;;;;0.95;0.60;;;8.80;99.90;;;;;;8315521;28;20025;-80
2022/11/04 03:20:23;;;;;;;0.73;0.40;;;8.80;99.90;;;;;;8309944;28;20022;-79
2022/11/04 03:24:24;;;;;;;0.65;0.50;;;8.70;99.90;;;;;;8314196;28;20541;-79
2022/11/04 03:28:40;;;;;;;0.82;0.40;;;8.80;99.90;;;;;;8313178;28;20025;-80
2022/11/04 03:32:56;;;;;;;1.48;0.50;;;8.70;99.90;;;;;;8313022;28;20104;-79
2022/11/04 03:36:57;;;;;;;0.73;0.50;;;8.70;99.90;;;;;;8310862;28;20026;-81
2022/11/04 03:40:59;;;;;;;0.75;0.55;;;8.70;99.90;;;;;;8316994;28;20055;-81
2022/11/04 03:45:00;;;;;;;1.25;0.50;;;8.80;99.90;;;;;;8314718;28;20014;-79
2022/11/04 03:49:01;;;;;;;0.47;0.40;;;8.80;99.90;;;;;;8303085;28;20460;-80
2022/11/04 03:53:02;;;;;;;0.30;0.30;;;8.80;99.90;;;;;;8319868;28;20057;-79
2022/11/04 03:57:25;;;;;;;2.38;0.50;;;8.90;99.90;;;;;;8312345;28;20036;-79
2022/11/04 04:01:37;;;;;;;0.70;0.50;;;8.70;99.90;;;;;;8311565;28;20492;-80
2022/11/04 04:05:53;;;;;;;0.70;0.40;;;8.70;99.90;;;;;;8318710;28;20078;-79
2022/11/04 04:10:02;;;;;;;0.63;0.45;;;8.70;99.90;;;;;;8308729;28;20025;-79
2022/11/04 04:14:08;;;;;;;1.35;0.40;;;8.70;99.90;;;;;;8309483;28;20065;-79
2022/11/04 04:18:16;;;;;;;0.80;0.52;;;8.70;99.90;;;;;;8313061;28;20167;-80
2022/11/04 04:22:37;;;;;;;0.28;0.28;;;8.70;99.90;;;;;;8307772;28;20018;-80
2022/11/04 04:30:58;;;;;;;0.20;0.20;;;8.70;99.90;;;;;;8295588;28;20103;-80
2022/11/04 04:48:02;;;;;;;0.75;0.30;;;8.40;99.90;;;;;;8308038;28;20037;-79
2022/11/04 04:52:06;;;;;;;0.45;0.40;;;8.40;99.90;;;;;;8304076;28;20033;-80
2022/11/04 04:56:06;;;;;;;1.60;0.40;;;8.40;99.90;;;;;;8314836;28;20026;-80
2022/11/04 05:00:10;;;;;;;1.08;0.40;;;8.30;99.90;;;;;;8314335;28;20029;-80
2022/11/04 05:04:11;;;;;;;0.50;0.40;;;8.30;99.90;;;;;;8308895;28;20468;-80
2022/11/04 05:08:11;;;;;;;2.15;0.50;;;8.30;99.90;;;;;;8306215;28;20121;-80
2022/11/04 05:12:12;;;;;;;0.75;0.60;;;8.20;99.90;;;;;;8329469;22;20038;-83
2022/11/04 05:16:12;;;;;;;1.55;0.70;;;8.10;99.90;;;;;;8310471;28;20034;-82
2022/11/04 05:20:13;;;;;;;0.60;0.52;;;8.20;99.90;;;;;;8325563;28;20044;-82
2022/11/04 05:24:14;;;;;;;1.13;0.60;;;8.10;99.90;;;;;;8288634;28;20445;-83
2022/11/04 05:28:14;;;;;;;3.38;0.70;;;8.20;99.90;;;;;;8310957;28;20032;-83
2022/11/04 05:32:15;;;;;;;1.02;0.60;;;8.10;99.90;;;;;;8287104;28;20379;-82
2022/11/04 05:36:15;;;;;;;0.95;0.57;;;8.20;99.90;;;;;;8295521;28;20021;-82
2022/11/04 05:40:42;;;;;;;0.60;0.50;;;8.10;99.90;;;;;;8290285;28;20034;-86
2022/11/04 05:44:43;;;;;;;1.05;0.50;;;8.00;99.90;;;;;;8277698;28;20034;-87
2022/11/04 05:48:43;;;;;;;1.08;0.60;;;8.10;99.90;;;;;;8278819;28;20466;-85
2022/11/04 05:52:44;;;;;;;1.30;0.60;;;8.20;99.90;;;;;;8278095;28;20037;-85
2022/11/04 05:56:44;;;;;;;1.40;0.57;;;8.10;99.90;;;;;;8279768;28;20022;-86
2022/11/04 06:00:45;;;;;;;0.70;0.43;;;8.10;99.90;;;;;;8282297;28;20052;-86
2022/11/04 06:04:45;;;;;;;0.90;0.60;;;8.60;99.90;;;;;;8282000;28;20027;-85
2022/11/04 06:08:46;;;;;;;0.73;0.60;;;7.90;99.90;;;;;;8285748;28;20033;-87
2022/11/04 06:12:47;;;;;;;1.15;0.50;;;7.90;99.90;;;;;;8287857;28;20046;-87
2022/11/04 06:16:47;;;;;;;0.85;0.55;;;8.10;99.90;;;;;;8287039;28;20032;-86
2022/11/04 06:20:48;;;;;;;0.95;0.70;;;7.80;99.90;;;;;;8287336;28;20026;-86
2022/11/04 06:24:48;;;;;;;1.33;0.80;;;8.00;99.90;;;;;;8288632;28;20084;-87
2022/11/04 06:28:49;;;;;;;0.43;0.43;;;7.90;99.90;;;;;;8287797;28;20578;-87
2022/11/04 06:32:50;;;;;;;0.80;0.60;;;7.60;99.90;;;;;;8292078;28;20025;-85
2022/11/04 06:36:50;;;;;;;1.10;0.60;;;8.00;99.90;;;;;;8286756;28;20485;-86
2022/11/04 06:40:51;;;;;;;0.88;0.50;;;7.80;99.90;;;;;;8283229;28;20029;-86
2022/11/04 06:44:52;;;;;;;1.30;0.80;;;8.10;99.90;;;;;;8282866;28;20029;-86
2022/11/04 06:48:54;;;;;;;0.55;0.55;;;7.90;99.90;;;;;;8279075;28;20061;-86
2022/11/04 06:52:55;;;;;;;0.90;0.70;;;8.00;99.90;;;;;;8287059;28;20395;-86
2022/11/04 06:56:55;;;;;;;2.42;0.93;;;7.90;99.90;;;;;;8283634;28;20019;-86
2022/11/04 07:00:56;;;;;;;2.00;1.00;;;7.90;99.90;;;;;;8284664;28;20023;-86
2022/11/04 07:04:56;;;;;;;2.05;0.98;;;7.20;99.90;;;;;;8282471;28;20026;-85
2022/11/04 07:08:59;;;;;;;1.27;0.80;;;7.90;99.90;;;;;;8290509;28;20022;-86
2022/11/04 07:13:00;;;;;;;1.65;1.00;;;8.00;99.90;;;;;;8283600;28;20022;-86
2022/11/04 07:17:19;;;;;;;2.28;0.90;;;8.00;99.90;;;;;;8290506;28;20048;-85
2022/11/04 07:21:20;;;;;;;1.60;0.75;;;8.10;99.90;;;;;;8278422;28;20030;-85
2022/11/04 07:25:20;;;;;;;1.45;1.00;;;8.50;99.90;;;;;;8282192;28;20412;-86
2022/11/04 07:29:21;;;;;;;1.38;0.82;;;8.10;99.90;;;;;;8293476;28;20026;-86
2022/11/04 07:33:22;;;;;;;1.30;0.70;;;8.10;99.90;;;;;;8282918;28;20037;-86
2022/11/04 07:37:22;;;;;;;1.10;0.80;;;8.20;99.90;;;;;;8278065;28;20025;-86
2022/11/04 07:41:23;;;;;;;1.52;0.65;;;8.00;99.90;;;;;;8278170;28;20056;-86
2022/11/04 07:45:23;;;;;;;1.27;0.70;;;8.30;99.90;;;;;;8285527;28;20112;-86
2022/11/04 07:49:24;;;;;;;1.10;0.80;;;8.80;99.90;;;;;;8284265;28;20029;-86
2022/11/04 07:53:26;;;;;;;0.63;0.63;;;8.30;99.90;;;;;;8295164;28;20026;-86
2022/11/04 07:57:28;;;;;;;0.90;0.82;;;8.40;99.90;;;;;;8288624;28;20112;-84
2022/11/04 08:01:28;;;;;;;1.90;1.05;;;8.40;99.90;;;;;;8287224;28;20494;-86
2022/11/04 08:05:29;;;;;;;1.48;1.00;;;8.60;99.90;;;;;;8284988;28;20018;-86
2022/11/04 08:09:29;;;;;;;1.25;0.77;;;8.70;99.90;;;;;;8286173;28;20030;-86
2022/11/04 08:13:32;;;;;;;2.38;0.77;;;8.50;99.90;;;;;;8284654;28;20029;-86
2022/11/04 08:17:33;;;;;;;1.35;0.80;;;8.80;99.90;;;;;;8280956;28;20109;-86
2022/11/04 08:21:33;;;;;;;1.70;1.08;;;8.70;99.90;;;;;;8281041;28;20041;-86
2022/11/04 08:25:34;;;;;;;2.17;1.45;;;8.80;99.90;;;;;;8283450;28;20068;-86
2022/11/04 08:29:36;;;;;;;1.20;0.80;;;9.10;99.90;;;;;;8281649;28;20033;-86
2022/11/04 08:33:36;;;;;;;2.08;0.90;;;9.10;99.90;;;;;;8282842;28;20022;-86
2022/11/04 08:37:37;;;;;;;1.45;1.00;;;9.20;99.90;;;;;;8276149;28;20026;-86
2022/11/04 08:41:41;;;;;;;2.72;0.90;;;9.20;99.90;;;;;;8280859;28;20022;-86
2022/11/04 08:45:51;;;;;;;0.70;0.60;;;9.10;99.90;;;;;;8284265;28;20112;-86
2022/11/04 08:49:52;;;;;;;1.02;0.70;;;9.20;99.90;;;;;;8278889;28;20045;-86
2022/11/04 08:53:53;;;;;;;1.05;0.60;;;9.40;99.90;;;;;;8275632;28;20030;-86
2022/11/04 08:57:53;;;;;;;1.48;0.80;;;9.30;99.90;;;;;;8275734;28;20478;-86
2022/11/04 09:01:54;;;;;;;0.80;0.47;;;9.50;99.90;;;;;;8279350;28;20026;-86
2022/11/04 09:05:56;;;;;;;0.60;0.60;;;9.90;99.90;;;;;;8280817;28;20462;-86
2022/11/04 09:09:57;;;;;;;0.43;0.43;;;9.70;99.90;;;;;;8287241;28;20022;-86
2022/11/04 09:14:00;;;;;;;1.75;0.63;;;9.90;99.90;;;;;;8283841;28;20535;-86
2022/11/04 09:18:01;;;;;;;0.88;0.60;;;9.80;99.90;;;;;;8305847;28;20129;-85
2022/11/04 09:22:01;;;;;;;0.90;0.60;;;9.90;99.90;;;;;;8276806;28;20160;-86
2022/11/04 09:26:08;;;;;;;1.52;0.60;;;10.00;99.90;;;;;;8280968;28;20494;-85
2022/11/04 09:30:09;;;;;;;1.20;0.73;;;10.20;99.90;;;;;;8278046;28;20050;-86
2022/11/04 09:34:09;;;;;;;0.90;0.70;;;10.40;99.90;;;;;;8291637;28;20037;-86
2022/11/04 09:38:10;;;;;;;0.80;0.60;;;10.70;99.90;;;;;;8279586;28;20038;-86
2022/11/04 09:42:40;;;;;;;1.20;0.80;;;10.70;99.90;;;;;;8280828;28;20169;-86
2022/11/04 09:46:41;;;;;;;1.88;0.80;;;10.60;99.90;;;;;;8302409;28;20033;-85
2022/11/04 09:50:49;;;;;;;1.42;0.80;;;10.60;99.90;;;;;;8286850;28;20026;-85
2022/11/04 09:54:58;;;;;;;1.10;0.70;;;10.60;99.90;;;;;;8305362;28;20022;-86
2022/11/04 09:59:02;;;;;;;1.10;0.65;;;9.90;99.90;;;;;;8281548;28;20073;-86
2022/11/04 10:03:25;;;;;;;1.77;0.70;;;11.00;99.90;;;;;;8283479;28;20100;-87
2022/11/04 10:07:38;;;;;;;0.82;0.60;;;11.00;99.90;;;;;;8291034;28;20052;-86
2022/11/04 10:12:08;;;;;;;0.77;0.60;;;11.40;99.90;;;;;;8287567;28;20394;-86
2022/11/04 10:16:45;;;;;;;0.60;0.60;;;11.40;99.90;;;;;;8290136;28;20026;-87
2022/11/04 10:21:08;;;;;;;1.13;0.82;;;11.40;99.90;;;;;;8290411;28;20026;-86
2022/11/04 10:25:22;;;;;;;1.40;0.63;;;11.60;99.90;;;;;;8273108;28;20030;-87
2022/11/04 10:29:28;;;;;;;1.13;0.70;;;11.90;99.90;;;;;;8276561;28;20019;-85
2022/11/04 10:33:37;;;;;;;0.90;0.57;;;11.90;99.90;;;;;;8282055;28;20049;-87
2022/11/04 10:37:38;;;;;;;0.60;0.40;;;11.60;99.90;;;;;;8276259;28;20053;-87
2022/11/04 10:41:39;;;;;;;0.68;0.52;;;11.90;99.90;;;;;;8282655;28;20501;-87
2022/11/04 10:45:55;;;;;;;0.50;0.50;;;12.00;99.90;;;;;;8281816;28;20022;-87
2022/11/04 10:50:18;;;;;;;0.75;0.70;;;12.00;99.90;;;;;;8287184;28;20030;-86
2022/11/04 10:54:19;;;;;;;1.60;0.80;;;11.80;99.90;;;;;;8286039;28;20030;-87
2022/11/04 10:58:29;;;;;;;0.80;0.60;;;12.10;99.90;;;;;;8278540;28;20092;-86
2022/11/04 11:02:36;;;;;;;1.23;0.80;;;12.40;99.90;;;;;;8276261;28;20024;-86
2022/11/04 11:06:37;;;;;;;1.05;0.50;;;12.40;99.90;;;;;;8267393;28;20540;-87
2022/11/04 11:10:50;;;;;;;1.13;0.60;;;12.50;99.90;;;;;;8289289;28;20056;-87
2022/11/04 11:14:51;;;;;;;1.50;0.60;;;12.40;99.90;;;;;;8274819;28;20049;-87
2022/11/04 11:19:10;;;;;;;0.90;0.60;;;12.70;99.90;;;;;;8283144;28;20034;-87
2022/11/04 11:23:36;;;;;;;0.70;0.40;;;12.70;99.90;;;;;;8286964;28;20109;-87
2022/11/04 11:27:37;;;;;;;0.73;0.55;;;13.00;99.90;;;;;;8276050;28;20033;-87
2022/11/04 11:31:39;;;;;;;0.68;0.68;;;13.10;99.90;;;;;;8274441;28;20520;-87
2022/11/04 11:35:47;;;;;;;4.13;0.68;;;12.70;99.90;;;;;;8285044;28;20036;-87
2022/11/04 11:39:47;;;;;;;0.82;0.45;;;13.20;99.90;;;;;;8281502;28;20038;-86
2022/11/04 11:43:53;;;;;;;0.60;0.60;;;13.20;99.90;;;;;;8276385;28;20038;-86
2022/11/04 11:47:55;;;;;;;1.13;0.60;;;12.80;99.90;;;;;;8297353;28;20565;-87
2022/11/04 11:52:30;;;;;;;1.17;0.70;;;13.10;99.90;;;;;;8284568;28;20609;-87
2022/11/04 11:56:42;;;;;;;0.82;0.50;;;13.20;99.90;;;;;;8284901;28;20030;-87
2022/11/04 12:00:54;;;;;;;0.55;0.50;;;13.20;99.90;;;;;;8279151;28;20479;-87
2022/11/04 12:04:56;;;;;;;0.80;0.52;;;13.00;99.90;;;;;;8267267;28;20022;-87
2022/11/04 12:09:18;;;;;;;0.85;0.70;;;13.00;99.90;;;;;;8280917;28;20030;-86
2022/11/04 12:13:37;;;;;;;0.65;0.50;;;13.10;99.90;;;;;;8288031;28;20053;-87
2022/11/04 12:17:56;;;;;;;1.20;0.80;;;13.10;99.90;;;;;;8276230;28;20088;-86
2022/11/04 12:22:34;;;;;;;1.95;0.50;;;13.00;99.90;;;;;;8265420;28;20096;-87
2022/11/04 12:27:12;;;;;;;1.23;0.50;;;13.10;99.90;;;;;;8300840;28;20014;-86
2022/11/04 12:31:50;;;;;;;0.50;0.50;;;12.90;99.90;;;;;;8289325;28;20026;-87
2022/11/04 12:36:06;;;;;;;1.08;0.50;;;12.90;99.90;;;;;;8263410;28;20026;-85
2022/11/04 12:40:16;;;;;;;0.73;0.40;;;12.90;99.90;;;;;;8285339;28;20025;-86
2022/11/04 12:44:42;;;;;;;1.42;0.57;;;12.90;99.90;;;;;;8277646;28;20109;-86
2022/11/04 12:49:12;;;;;;;0.65;0.28;;;12.70;99.90;;;;;;8292029;28;20449;-86
2022/11/04 12:53:35;;;;;;;0.50;0.30;;;12.60;99.90;;;;;;8303168;28;20010;-84
2022/11/04 12:57:57;;;;;;;1.77;0.57;;;12.40;99.90;;;;;;8280316;28;20093;-86
2022/11/04 13:02:10;;;;;;;2.30;0.60;;;12.60;99.90;;;;;;8273923;28;20038;-86
2022/11/04 13:06:25;;;;;;;0.98;0.45;;;12.40;99.90;;;;;;8287379;28;20497;-86
2022/11/04 13:10:45;;;;;;;1.23;0.52;;;12.60;99.90;;;;;;8276847;28;20513;-87
2022/11/04 13:14:51;;;;;;;0.80;0.50;;;12.40;99.90;;;;;;8283247;28;20029;-86
2022/11/04 13:18:52;;;;;;;2.05;0.52;;;12.40;99.90;;;;;;8265240;28;20041;-86
2022/11/04 13:22:53;;;;;;;1.17;0.68;;;12.90;99.90;;;;;;8279045;28;20023;-87
2022/11/04 13:26:54;;;;;;;0.82;0.43;;;12.80;99.90;;;;;;8280130;28;20073;-86
2022/11/04 13:31:02;;;;;;;0.70;0.50;;;13.40;99.90;;;;;;8282521;28;20026;-86
2022/11/04 13:35:30;;;;;;;1.80;0.63;;;12.90;99.90;;;;;;8279794;28;20033;-86
2022/11/04 13:39:41;;;;;;;1.08;0.45;;;12.90;99.90;;;;;;8284232;28;20029;-86
2022/11/04 13:43:51;;;;;;;;;;;13.20;99.90;;;;;;8282196;28;20109;-86
2022/11/04 13:47:56;;;;;;;0.45;0.35;;;13.40;99.90;;;;;;8268887;28;19910;-86
2022/11/04 13:52:01;;;;;;;2.35;0.50;;;13.20;99.90;;;;;;8281807;28;20018;-87
2022/11/04 13:56:02;;;;;;;2.03;0.95;;;13.30;99.90;;;;;;8275160;28;20038;-86
2022/11/04 14:00:12;;;;;;;0.80;0.43;;;13.10;99.90;;;;;;8280003;28;20034;-86
2022/11/04 14:04:12;;;;;;;0.40;0.40;;;13.00;99.90;;;;;;8281420;28;20028;-86
2022/11/04 14:08:15;;;;;;;0.82;0.50;;;12.90;99.90;;;;;;8279244;28;20257;-86
2022/11/04 14:12:16;;;;;;;1.45;0.70;;;12.70;99.90;;;;;;8285283;28;20032;-86
2022/11/04 14:16:23;;;;;;;0.90;0.43;;;12.50;99.90;;;;;;8265831;28;20491;-85
2022/11/04 14:20:25;;;;;;;0.22;0.20;;;12.50;99.90;;;;;;8275516;28;20026;-86
2022/11/04 14:24:27;;;;;;;0.57;0.30;;;12.50;99.90;;;;;;8270533;28;20023;-86
2022/11/04 14:28:30;;;;;;;2.78;0.60;;;12.90;99.90;;;;;;8271931;28;20160;-85
2022/11/04 14:32:40;;;;;;;3.30;0.90;;;12.60;99.90;;;;;;8287960;28;20509;-86
2022/11/04 14:36:41;;;;;;;1.27;0.68;;;12.60;99.90;;;;;;8278793;28;20403;-86
2022/11/04 14:40:52;;;;;;;3.15;1.08;;;12.20;99.90;;;;;;8281345;28;20025;-86
2022/11/04 14:44:53;;;;;;;5.10;2.25;;;12.70;99.90;;;;;;8290969;28;20109;-86
2022/11/04 14:48:59;;;;;;;2.00;0.73;;;12.60;99.90;;;;;;8290675;28;20054;-86
2022/11/04 14:53:03;;;;;;;2.05;1.05;;;12.50;99.90;;;;;;8284592;28;20482;-86
2022/11/04 14:57:23;;;;;;;2.25;1.38;;;12.90;99.90;;;;;;8282817;28;20458;-86
2022/11/04 15:01:27;;;;;;;1.20;0.65;;;12.30;99.90;;;;;;8281892;28;20030;-86
2022/11/04 15:05:29;;;;;;;1.20;0.57;;;12.20;99.90;;;;;;8284080;28;20435;-86
2022/11/04 15:09:38;;;;;;;2.47;0.90;;;12.40;99.90;;;;;;8289993;28;20030;-86
2022/11/04 15:13:48;;;;;;;2.08;0.98;;;12.10;99.90;;;;;;8271952;28;20029;-86
2022/11/04 15:17:49;;;;;;;2.50;1.05;;;11.70;99.90;;;;;;8278245;28;20502;-86
2022/11/04 15:21:49;;;;;;;3.78;1.80;;;11.30;99.90;;;;;;8290861;28;20026;-86
2022/11/04 15:25:50;;;;;;;14.70;6.97;;;11.00;99.90;;;;;;8283094;28;20076;-85
2022/11/04 15:29:56;;;;;;;11.98;6.07;;;10.80;99.90;;;;;;8286189;28;20057;-86
2022/11/04 15:33:59;;;;;;;4.15;1.95;;;10.50;99.90;;;;;;8274568;28;20188;-86
2022/11/04 15:38:02;;;;;;;2.05;1.30;;;10.30;99.90;;;;;;8283633;28;20147;-86
2022/11/04 15:46:32;;;;;;;0.70;0.60;;;9.80;99.90;;;;;;8283604;28;20025;-86
2022/11/04 15:50:33;;;;;;;1.67;0.68;;;9.50;99.90;;;;;;8288684;28;20036;-86
2022/11/04 15:54:53;;;;;;;1.35;0.52;;;9.30;99.90;;;;;;8286155;28;20490;-86
2022/11/04 15:58:56;;;;;;;0.85;0.35;;;9.30;99.90;;;;;;8276488;28;20022;-87
2022/11/04 16:02:58;;;;;;;0.88;0.50;;;9.20;99.90;;;;;;8275930;28;20049;-87
2022/11/04 16:07:02;;;;;;;1.75;0.60;;;8.90;99.90;;;;;;8284441;28;20101;-87
2022/11/04 16:11:18;;;;;;;0.85;0.43;;;8.80;99.90;;;;;;8284535;28;20030;-86
2022/11/04 16:15:42;;;;;;;0.77;0.40;;;8.70;99.90;;;;;;8284676;28;20521;-87
2022/11/04 16:19:46;;;;;;;9.85;1.73;;;8.60;99.90;;;;;;8280158;28;20080;-86
2022/11/04 16:23:51;;;;;;;2.22;0.77;;;9.20;99.90;;;;;;8282593;28;20018;-86
2022/11/04 16:27:52;;;;;;;0.80;0.50;;;9.30;99.90;;;;;;8284921;28;20520;-86
2022/11/04 16:32:23;;;;;;;0.88;0.60;;;9.30;99.90;;;;;;8281984;28;20026;-86
2022/11/04 16:36:24;;;;;;;;;;;9.20;99.90;;;;;;8277469;28;20434;-86
2022/11/04 16:40:25;;;;;;;0.95;0.47;;;9.00;99.90;;;;;;8281287;28;19953;-86
2022/11/04 16:44:25;;;;;;;1.08;0.40;;;8.90;99.90;;;;;;8282252;28;20022;-87
2022/11/04 16:48:26;;;;;;;1.13;0.40;;;8.70;99.90;;;;;;8283825;28;20601;-85
2022/11/04 16:52:27;;;;;;;0.77;0.40;;;8.40;99.90;;;;;;8280207;28;20437;-83
2022/11/04 16:56:28;;;;;;;0.68;0.57;;;8.20;99.90;;;;;;8280312;28;20052;-83
2022/11/04 17:00:32;;;;;;;0.70;0.35;;;8.10;99.90;;;;;;8277913;28;20025;-83
2022/11/04 17:04:33;;;;;;;0.70;0.38;;;7.90;99.90;;;;;;8277878;28;20080;-84
2022/11/04 17:08:34;;;;;;;1.17;0.40;;;7.90;99.90;;;;;;8298704;28;20095;-85
2022/11/04 17:12:34;;;;;;;2.42;0.90;;;7.80;99.90;;;;;;8274912;28;20037;-86
2022/11/04 17:16:35;;;;;;;2.28;0.80;;;7.90;99.90;;;;;;8286680;28;20033;-86
2022/11/04 17:20:35;;;;;;;2.72;1.00;;;7.50;99.90;;;;;;8295080;28;20022;-87
2022/11/04 17:24:36;;;;;;;6.53;1.05;;;7.70;99.90;;;;;;8282155;28;20045;-86
2022/11/04 17:28:37;;;;;;;7.57;1.65;;;7.40;99.90;;;;;;8285400;28;20030;-86
2022/11/04 17:32:38;;;;;;;2.88;1.52;;;7.20;99.90;;;;;;8280302;28;20036;-87
2022/11/04 17:36:38;;;;;;;1.55;0.70;;;7.20;99.90;;;;;;8283945;28;20163;-86
2022/11/04 17:44:58;;;;;;;14.02;7.57;;;7.20;99.90;;;;;;8338896;23;20056;-86
2022/11/04 17:49:01;;;;;;;2.28;1.30;;;7.10;99.90;;;;;;8342590;28;20026;-85
2022/11/04 17:53:02;;;;;;;1.00;0.60;;;7.20;99.90;;;;;;8334547;28;20033;-84
2022/11/04 17:57:02;;;;;;;9.02;1.50;;;7.50;99.90;;;;;;8344108;28;20033;-85
2022/11/04 18:01:06;;;;;;;0.90;0.70;;;7.20;99.90;;;;;;8340254;28;20026;-85
2022/11/04 18:05:07;;;;;;;2.45;1.20;;;7.20;99.90;;;;;;8345967;28;20508;-85
2022/11/04 18:09:11;;;;;;;3.15;1.27;;;7.10;99.90;;;;;;8353028;28;20032;-84
2022/11/04 18:13:11;;;;;;;17.98;10.35;;;7.00;99.90;;;;;;8357785;28;20398;-84
2022/11/04 18:17:12;;;;;;;10.40;7.40;;;7.20;99.90;;;;;;8345672;28;20017;-84
2022/11/04 18:21:12;;;;;;;9.00;6.03;;;7.10;99.90;;;;;;8349207;28;20371;-84
2022/11/04 18:25:13;;;;;;;15.43;11.70;;;7.20;99.90;;;;;;8351089;28;20021;-84
2022/11/04 18:29:15;;;;;;;3.72;2.58;;;7.00;99.90;;;;;;8350422;28;20029;-85
2022/11/04 18:33:15;;;;;;;2.95;1.83;;;6.90;99.90;;;;;;8350771;28;20523;-84
2022/11/04 18:37:17;;;;;;;3.05;1.95;;;6.70;99.90;;;;;;8353959;28;20055;-84
2022/11/04 18:41:17;;;;;;;1.98;1.25;;;6.30;99.90;;;;;;8349344;28;20571;-84
2022/11/04 18:45:18;;;;;;;5.32;1.55;;;6.40;99.90;;;;;;8354033;28;20028;-84
2022/11/04 18:49:19;;;;;;;3.38;1.83;;;6.30;99.90;;;;;;8353683;28;20024;-84
2022/11/04 18:53:20;;;;;;;4.38;2.10;;;5.80;99.90;;;;;;8350166;28;20592;-84
2022/11/04 18:57:20;;;;;;;2.63;1.60;;;5.60;99.90;;;;;;8349748;28;20028;-84
2022/11/04 19:01:27;;;;;;;2.97;1.40;;;5.50;99.90;;;;;;8347115;28;20437;-85
2022/11/04 19:05:28;;;;;;;1.88;1.38;;;5.50;99.90;;;;;;8341983;28;20095;-85
2022/11/04 19:09:29;;;;;;;2.88;1.85;;;5.50;99.90;;;;;;8349544;28;20025;-85
2022/11/04 19:13:29;;;;;;;6.30;1.88;;;5.50;99.90;;;;;;8351072;28;20109;-85
2022/11/04 19:17:30;;;;;;;7.30;4.32;;;5.50;99.90;;;;;;8349083;28;20119;-84
2022/11/04 19:21:31;;;;;;;4.78;2.15;;;5.60;99.90;;;;;;8344319;28;20386;-84
2022/11/04 19:25:32;;;;;;;5.35;2.03;;;5.70;99.90;;;;;;8344875;28;20102;-84
2022/11/04 19:29:32;;;;;;;4.85;2.17;;;5.60;99.90;;;;;;8339192;28;20053;-85
2022/11/04 19:33:33;;;;;;;2.67;1.80;;;5.60;99.90;;;;;;8345572;28;20495;-84
2022/11/04 19:37:34;;;;;;;4.65;2.40;;;5.80;99.90;;;;;;8345444;28;20097;-82
2022/11/04 19:45:53;;;;;;;2.92;1.80;;;6.00;99.90;;;;;;8344432;28;20592;-82
2022/11/04 19:49:54;;;;;;;2.63;1.80;;;5.90;99.90;;;;;;8347930;28;20041;-82
2022/11/04 19:53:55;;;;;;;4.45;2.42;;;5.80;99.90;;;;;;8356550;28;20033;-83
2022/11/04 19:57:55;;;;;;;3.47;2.80;;;5.90;99.90;;;;;;8361997;28;20025;-83
2022/11/04 20:01:56;;;;;;;3.92;2.40;;;6.00;99.90;;;;;;8361520;28;20033;-83
2022/11/04 20:05:56;;;;;;;4.28;2.38;;;6.00;99.90;;;;;;8369757;28;20461;-82
2022/11/04 20:09:57;;;;;;;2.90;1.90;;;6.10;99.90;;;;;;8352432;28;20017;-83
2022/11/04 20:13:58;;;;;;;4.88;1.50;;;6.00;99.90;;;;;;8355661;28;20374;-83
2022/11/04 20:17:59;;;;;;;2.80;1.90;;;6.40;99.90;;;;;;8358780;28;20026;-83
2022/11/04 20:22:00;;;;;;;2.47;1.67;;;6.10;99.90;;;;;;8352648;28;20028;-82
2022/11/04 20:26:17;;;;;;;1.92;1.52;;;5.80;99.90;;;;;;8352253;28;20021;-83
2022/11/04 20:30:17;;;;;;;3.17;2.13;;;5.80;99.90;;;;;;8357784;28;20088;-83
2022/11/04 20:34:18;;;;;;;2.35;1.85;;;5.80;99.90;;;;;;8360997;28;20059;-83
2022/11/04 20:38:18;;;;;;;5.45;2.40;;;5.80;99.90;;;;;;8357558;28;20021;-82
2022/11/04 20:42:19;;;;;;;3.00;2.25;;;5.90;99.90;;;;;;8350410;28;20024;-83
2022/11/04 20:46:23;;;;;;;2.30;2.03;;;6.00;99.90;;;;;;8356351;28;20087;-83
2022/11/04 20:50:23;;;;;;;3.72;2.30;;;6.20;99.90;;;;;;8358622;28;20044;-83
2022/11/04 20:54:24;;;;;;;3.67;2.70;;;6.00;99.90;;;;;;8358596;28;20025;-83
2022/11/04 20:58:25;;;;;;;4.65;2.38;;;6.00;99.90;;;;;;8361075;28;20288;-83
2022/11/04 21:02:26;;;;;;;4.32;2.70;;;5.90;99.90;;;;;;8347063;28;20033;-83
2022/11/04 21:06:27;;;;;;;8.60;3.45;;;5.90;99.90;;;;;;8362389;28;20027;-83
2022/11/04 21:10:28;;;;;;;9.65;4.68;;;5.70;99.90;;;;;;8356133;28;20021;-83
2022/11/04 21:14:33;;;;;;;8.30;4.60;;;5.60;99.90;;;;;;8365703;28;20092;-83
2022/11/04 21:18:33;;;;;;;11.98;6.53;;;5.50;99.90;;;;;;8357834;28;20029;-83
2022/11/04 21:22:34;;;;;;;13.63;7.13;;;5.40;99.90;;;;;;8374107;28;20519;-83
2022/11/04 21:26:35;;;;;;;14.70;7.82;;;5.30;99.90;;;;;;8350822;28;20021;-83
2022/11/04 21:30:37;;;;;;;8.10;5.30;;;5.30;99.90;;;;;;8351714;28;20017;-82
2022/11/04 21:34:38;;;;;;;13.90;6.65;;;5.20;99.90;;;;;;8350527;28;20021;-82
2022/11/04 21:38:40;;;;;;;13.75;8.43;;;5.10;99.90;;;;;;8351875;28;20024;-82
2022/11/04 21:42:40;;;;;;;12.85;6.40;;;5.10;99.90;;;;;;8358711;28;20025;-83
2022/11/04 21:46:41;;;;;;;10.25;4.60;;;5.00;99.90;;;;;;8358808;28;20512;-83
2022/11/04 21:50:42;;;;;;;6.88;4.57;;;4.90;99.90;;;;;;8357383;28;20021;-83
2022/11/04 21:54:42;;;;;;;8.82;5.57;;;4.70;99.90;;;;;;8357377;28;20056;-82
2022/11/04 21:58:43;;;;;;;5.78;3.88;;;4.60;99.90;;;;;;8356838;28;20029;-82
2022/11/04 22:02:50;;;;;;;9.15;4.00;;;4.50;99.90;;;;;;8356044;28;20481;-83
2022/11/04 22:06:50;;;;;;;12.85;4.55;;;4.40;99.90;;;;;;8360232;28;20639;-82
2022/11/04 22:10:51;;;;;;;70.25;4.63;;;4.30;99.90;;;;;;8357241;28;20025;-82
2022/11/04 22:14:52;;;;;;;53.13;5.13;;;4.20;99.90;;;;;;8352220;28;20021;-82